createdAt,value
2018-02-14T06:27:09.408Z,41.07
2018-02-14T06:29:35.601Z,51.20
2018-02-14T06:32:01.749Z,40.93
2018-02-14T06:34:27.952Z,46.80
2018-02-14T06:36:54.113Z,34.33
2018-02-14T06:39:21.017Z,41.30
2018-02-14T06:41:47.179Z,22.23
2018-02-14T06:44:13.376Z,29.27
2018-02-14T06:46:39.508Z,28.30
2018-02-14T06:49:05.736Z,22.53
2018-02-14T06:51:31.881Z,25.63
2018-02-14T06:53:58.070Z,15.90
2018-02-14T06:56:24.344Z,15.57
2018-02-14T06:58:50.505Z,26.63
2018-02-14T07:01:17.416Z,18.33
2018-02-14T07:03:43.576Z,15.90
2018-02-14T07:06:10.500Z,17.23
2018-02-14T07:08:37.405Z,14.20
2018-02-14T07:11:03.589Z,19.60
2018-02-14T07:13:30.517Z,18.00
2018-02-14T07:15:56.676Z,11.80
2018-02-14T07:18:22.845Z,10.40
2018-02-14T07:20:49.008Z,12.80
2018-02-14T07:23:15.228Z,13.67
2018-02-14T07:25:41.388Z,12.57
2018-02-14T07:28:07.541Z,9.03
2018-02-14T07:30:33.712Z,18.70
2018-02-14T07:32:59.898Z,9.87
2018-02-14T07:35:26.121Z,13.67
2018-02-14T07:37:52.265Z,14.63
2018-02-14T07:40:19.164Z,11.97
2018-02-14T07:42:45.344Z,11.03
2018-02-14T07:45:11.549Z,13.30
2018-02-14T07:47:37.712Z,15.50
2018-02-14T07:50:03.893Z,12.47
2018-02-14T07:52:30.069Z,12.27
2018-02-14T07:54:56.257Z,13.33
2018-02-14T07:57:23.160Z,15.73
2018-02-14T07:59:49.336Z,7.80
2018-02-14T08:02:15.510Z,10.83
2018-02-14T08:04:41.680Z,13.93
2018-02-14T08:07:07.843Z,10.50
2018-02-14T08:09:33.988Z,10.17
2018-02-14T08:12:00.133Z,10.33
2018-02-14T08:14:26.318Z,11.77
2018-02-14T08:16:52.492Z,12.73
2018-02-14T08:19:18.640Z,14.40
2018-02-14T08:21:44.832Z,10.17
2018-02-14T08:24:11.773Z,8.50
2018-02-14T08:26:37.973Z,6.80
2018-02-14T08:29:04.138Z,15.83
2018-02-14T08:31:30.284Z,12.53
2018-02-14T08:33:56.464Z,12.87
2018-02-14T08:36:22.648Z,23.63
2018-02-14T08:38:49.581Z,20.63
2018-02-14T08:41:15.733Z,14.93
2018-02-14T08:43:41.908Z,17.87
2018-02-14T08:46:08.060Z,18.63
2018-02-14T08:48:34.225Z,17.53
2018-02-14T08:51:01.150Z,26.83
2018-02-14T08:53:29.850Z,14.83
2018-02-14T08:55:56.000Z,11.27
2018-02-14T08:58:22.189Z,14.23
2018-02-14T09:00:48.361Z,17.47
2018-02-14T09:03:15.284Z,18.33
2018-02-14T09:05:41.473Z,13.93
2018-02-14T09:08:08.412Z,12.67
2018-02-14T09:10:34.605Z,13.50
2018-02-14T09:13:01.533Z,12.10
2018-02-14T09:15:27.704Z,13.83
2018-02-14T09:17:53.902Z,10.50
2018-02-14T09:20:20.064Z,12.40
2018-02-14T09:22:46.263Z,16.80
2018-02-14T09:25:12.429Z,9.20
2018-02-14T09:27:39.340Z,9.70
2018-02-14T09:30:05.545Z,9.43
2018-02-14T09:32:32.496Z,11.67
2018-02-14T09:34:58.645Z,8.17
2018-02-14T09:37:24.814Z,9.67
2018-02-14T09:39:51.753Z,9.67
2018-02-14T09:42:17.896Z,7.93
2018-02-14T09:44:44.068Z,12.17
2018-02-14T09:47:10.225Z,8.10
2018-02-14T09:49:37.148Z,10.43
2018-02-14T09:52:03.329Z,10.60
2018-02-14T09:54:29.517Z,10.83
2018-02-14T09:56:56.432Z,13.03
2018-02-14T09:59:22.588Z,10.30
2018-02-14T10:01:55.840Z,11.30
2018-02-14T10:04:22.009Z,7.50
2018-02-14T10:06:48.940Z,10.77
2018-02-14T10:09:15.072Z,8.00
2018-02-14T10:11:41.256Z,9.57
2018-02-14T10:14:07.426Z,13.80
2018-02-14T10:16:34.334Z,8.50
2018-02-14T10:19:00.513Z,6.47
2018-02-14T10:21:26.725Z,7.43
2018-02-14T10:23:52.950Z,7.40
2018-02-14T10:26:19.844Z,8.67
2018-02-14T10:28:46.008Z,9.37
2018-02-14T10:31:12.213Z,9.37
2018-02-14T10:33:39.091Z,8.23
2018-02-14T10:36:06.004Z,8.83
2018-02-14T10:38:32.192Z,9.13
2018-02-14T10:40:58.376Z,11.30
2018-02-14T10:43:24.520Z,8.33
2018-02-14T10:45:51.424Z,12.13
2018-02-14T10:48:17.604Z,7.43
2018-02-14T10:50:43.749Z,9.10
2018-02-14T10:53:09.940Z,6.70
2018-02-14T10:55:36.889Z,7.70
2018-02-14T10:58:03.093Z,7.23
2018-02-14T11:00:35.321Z,6.63
2018-02-14T11:03:09.259Z,6.00
2018-02-14T11:05:35.456Z,7.97
2018-02-14T11:08:01.656Z,9.03
2018-02-14T11:10:27.812Z,5.97
2018-02-14T11:12:54.001Z,5.67
2018-02-14T11:15:20.896Z,10.23
2018-02-14T11:17:47.061Z,9.17
2018-02-14T11:20:13.224Z,6.70
2018-02-14T11:22:39.416Z,8.00
2018-02-14T11:25:06.356Z,7.37
2018-02-14T11:27:32.540Z,9.97
2018-02-14T11:29:58.697Z,8.77
2018-02-14T11:32:25.608Z,8.00
2018-02-14T11:34:51.841Z,12.40
2018-02-14T11:37:18.008Z,11.50
2018-02-14T11:39:44.189Z,9.40
2018-02-14T11:42:10.335Z,10.03
2018-02-14T11:44:36.513Z,10.47
2018-02-14T11:47:03.385Z,11.37
2018-02-14T11:49:30.281Z,10.73
2018-02-14T11:51:56.433Z,10.30
2018-02-14T11:54:22.578Z,14.27
2018-02-14T11:56:48.721Z,13.30
2018-02-14T11:59:14.860Z,12.90
2018-02-14T12:01:41.110Z,13.07
2018-02-14T12:04:08.040Z,12.77
2018-02-14T12:06:34.216Z,16.67
2018-02-14T12:09:01.117Z,13.73
2018-02-14T12:11:27.302Z,12.53
2018-02-14T12:13:53.484Z,15.97
2018-02-14T12:16:19.662Z,14.53
2018-02-14T12:18:45.860Z,12.50
2018-02-14T12:21:12.080Z,13.70
2018-02-14T12:23:38.292Z,15.30
2018-02-14T12:26:05.173Z,13.00
2018-02-14T12:28:32.063Z,13.63
2018-02-14T12:30:58.228Z,12.13
2018-02-14T12:33:24.372Z,12.37
2018-02-14T12:35:50.536Z,15.03
2018-02-14T12:38:16.704Z,12.20
2018-02-14T12:40:42.884Z,13.43
2018-02-14T12:43:09.045Z,11.83
2018-02-14T12:45:35.963Z,12.83
2018-02-14T12:48:02.155Z,18.37
2018-02-14T12:50:29.033Z,14.60
2018-02-14T12:52:55.983Z,12.27
2018-02-14T12:55:22.171Z,14.10
2018-02-14T12:57:48.336Z,13.00
2018-02-14T13:00:14.501Z,12.67
2018-02-14T13:02:40.652Z,12.83
2018-02-14T13:05:06.872Z,13.40
2018-02-14T13:07:33.029Z,12.77
2018-02-14T13:09:59.188Z,10.93
2018-02-14T13:12:25.332Z,11.23
2018-02-14T13:14:51.537Z,12.13
2018-02-14T13:17:17.699Z,13.80
2018-02-14T13:19:44.596Z,12.57
2018-02-14T13:22:10.801Z,13.00
2018-02-14T13:24:36.997Z,15.13
2018-02-14T13:27:03.942Z,15.67
2018-02-14T13:29:31.599Z,16.80
2018-02-14T13:31:57.791Z,15.17
2018-02-14T13:34:24.692Z,14.07
2018-02-14T13:36:50.888Z,20.48
2018-02-14T13:39:17.048Z,18.57
2018-02-14T13:41:43.216Z,17.33
2018-02-14T13:44:09.365Z,17.20
2018-02-14T13:46:35.558Z,13.60
2018-02-14T13:49:01.719Z,12.53
2018-02-14T13:51:27.881Z,13.27
2018-02-14T13:53:54.052Z,11.63
2018-02-14T13:56:20.238Z,11.10
2018-02-14T13:58:47.141Z,14.60
2018-02-14T14:01:13.318Z,12.52
2018-02-14T14:03:39.471Z,13.93
2018-02-14T14:06:05.629Z,12.03
2018-02-14T14:08:32.259Z,10.73
2018-02-14T14:10:58.437Z,10.07
2018-02-14T14:13:24.638Z,15.67
2018-02-14T14:15:50.825Z,9.30
2018-02-14T14:18:17.037Z,10.60
2018-02-14T14:20:43.940Z,11.47
2018-02-14T14:23:10.125Z,11.07
2018-02-14T14:25:37.045Z,11.50
2018-02-14T14:28:03.201Z,9.47
2018-02-14T14:30:29.368Z,11.77
2018-02-14T14:32:55.541Z,9.93
2018-02-14T14:35:21.704Z,6.97
2018-02-14T14:37:47.884Z,8.20
2018-02-14T14:40:14.792Z,7.67
2018-02-14T14:42:40.936Z,9.53
2018-02-14T14:45:07.145Z,7.43
2018-02-14T14:47:34.081Z,5.50
2018-02-14T14:50:00.439Z,5.83
2018-02-14T14:52:28.061Z,4.83
2018-02-14T14:54:54.968Z,8.53
2018-02-14T14:57:21.136Z,6.50
2018-02-14T14:59:47.288Z,5.60
2018-02-14T15:02:13.499Z,7.53
2018-02-14T15:04:39.673Z,9.47
2018-02-14T15:07:05.840Z,5.50
2018-02-14T15:09:32.000Z,5.40
2018-02-14T15:11:58.929Z,8.73
2018-02-14T15:14:25.082Z,6.30
2018-02-14T15:16:51.293Z,5.80
2018-02-14T15:19:17.424Z,5.73
2018-02-14T15:21:43.605Z,5.10
2018-02-14T15:24:10.537Z,4.30
2018-02-14T15:26:36.733Z,6.80
2018-02-14T15:29:03.650Z,3.67
2018-02-14T15:31:29.841Z,4.70
2018-02-14T15:33:56.732Z,4.10
2018-02-14T15:36:22.923Z,4.43
2018-02-14T15:38:49.111Z,3.93
2018-02-14T15:41:15.997Z,5.05
2018-02-14T15:43:42.184Z,5.10
2018-02-14T15:46:08.352Z,4.97
2018-02-14T15:48:34.501Z,3.33
2018-02-14T15:51:00.661Z,3.97
2018-02-14T15:53:26.800Z,3.53
2018-02-14T15:55:53.002Z,3.90
2018-02-14T15:58:19.175Z,4.72
2018-02-14T16:00:45.333Z,3.83
2018-02-14T16:03:11.497Z,5.70
2018-02-14T16:05:37.661Z,6.35
2018-02-14T16:08:03.864Z,8.60
2018-02-14T16:10:30.036Z,5.07
2018-02-14T16:12:56.205Z,6.78
2018-02-14T16:15:22.404Z,6.33
2018-02-14T16:17:49.312Z,4.80
2018-02-14T16:20:15.489Z,7.87
2018-02-14T16:22:41.696Z,7.80
2018-02-14T16:25:07.998Z,7.37
2018-02-14T16:27:34.177Z,10.90
2018-02-14T16:30:01.101Z,8.13
2018-02-14T16:32:27.280Z,9.13
2018-02-14T16:34:53.461Z,9.55
2018-02-14T16:37:20.389Z,5.80
2018-02-14T16:39:46.576Z,10.30
2018-02-14T16:42:13.489Z,4.68
2018-02-14T16:44:39.644Z,6.27
2018-02-14T16:47:05.837Z,5.57
2018-02-14T16:49:32.768Z,7.55
2018-02-14T16:51:58.932Z,5.87
2018-02-14T16:54:25.119Z,5.13
2018-02-14T16:56:52.028Z,7.00
2018-02-14T16:59:18.204Z,5.43
2018-02-14T17:01:44.363Z,6.55
2018-02-14T17:04:10.665Z,24.23
2018-02-14T17:06:36.877Z,13.95
2018-02-14T17:09:03.143Z,17.00
2018-02-14T17:11:30.065Z,16.93
2018-02-14T17:13:56.280Z,14.13
2018-02-14T17:16:22.496Z,22.62
2018-02-14T17:18:48.736Z,12.23
2018-02-14T17:21:14.937Z,9.10
2018-02-14T17:23:41.104Z,23.80
2018-02-14T17:26:07.300Z,11.40
2018-02-14T17:28:33.488Z,10.30
2018-02-14T17:31:00.373Z,10.70
2018-02-14T17:33:26.600Z,14.15
2018-02-14T17:35:53.540Z,8.25
2018-02-14T17:38:19.762Z,7.37
2018-02-14T17:40:45.929Z,7.87
2018-02-14T17:43:12.128Z,9.52
2018-02-14T17:45:39.060Z,7.18
2018-02-14T17:48:05.505Z,10.45
2018-02-14T17:50:31.676Z,12.40
2018-02-14T17:52:57.864Z,5.93
2018-02-14T17:55:24.784Z,9.45
2018-02-14T17:57:50.948Z,5.72
2018-02-14T18:00:17.134Z,5.68
2018-02-14T18:02:44.049Z,4.07
2018-02-14T18:05:10.256Z,8.55
2018-02-14T18:07:37.167Z,9.48
2018-02-14T18:10:03.371Z,6.68
2018-02-14T18:12:30.280Z,5.50
2018-02-14T18:14:56.464Z,10.30
2018-02-14T18:17:22.621Z,9.02
2018-02-14T18:19:48.797Z,3.65
2018-02-14T18:22:15.725Z,9.75
2018-02-14T18:24:41.924Z,6.03
2018-02-14T18:27:08.897Z,5.22
2018-02-14T18:29:35.060Z,9.25
2018-02-14T18:32:01.264Z,7.30
2018-02-14T18:34:27.453Z,11.23
2018-02-14T18:36:53.600Z,5.78
2018-02-14T18:39:20.502Z,7.93
2018-02-14T18:41:46.692Z,5.85
2018-02-14T18:44:12.877Z,6.78
2018-02-14T18:46:39.051Z,8.82
2018-02-14T18:49:05.235Z,4.82
2018-02-14T18:51:31.416Z,5.18
2018-02-14T18:53:58.749Z,6.00
2018-02-14T18:56:25.222Z,6.15
2018-02-14T18:58:51.399Z,5.28
2018-02-14T19:01:18.344Z,6.40
2018-02-14T19:03:44.496Z,4.78
2018-02-14T19:06:10.687Z,3.85
2018-02-14T19:08:37.624Z,5.65
2018-02-14T19:11:03.842Z,5.55
2018-02-14T19:13:30.024Z,3.87
2018-02-14T19:15:56.181Z,5.20
2018-02-14T19:18:22.353Z,5.15
2018-02-14T19:20:49.256Z,7.55
2018-02-14T19:23:15.428Z,5.12
2018-02-14T19:25:41.625Z,6.37
2018-02-14T19:28:08.541Z,5.65
2018-02-14T19:30:34.688Z,6.70
2018-02-14T19:33:00.857Z,10.40
2018-02-14T19:35:27.012Z,9.38
2018-02-14T19:37:53.185Z,5.37
2018-02-14T19:40:19.356Z,6.57
2018-02-14T19:42:46.272Z,4.95
2018-02-14T19:45:12.465Z,6.47
2018-02-14T19:47:38.664Z,6.62
2018-02-14T19:50:04.814Z,6.07
2018-02-14T19:52:30.973Z,4.07
2018-02-14T19:54:57.152Z,5.28
2018-02-14T19:57:23.313Z,4.43
2018-02-14T19:59:49.468Z,3.97
2018-02-14T20:02:15.625Z,6.37
2018-02-14T20:04:41.852Z,5.50
2018-02-14T20:07:08.013Z,5.97
2018-02-14T20:09:34.217Z,5.07
2018-02-14T20:12:00.356Z,4.85
2018-02-14T20:14:26.505Z,5.40
2018-02-14T20:16:53.416Z,5.45
2018-02-14T20:19:19.568Z,4.47
2018-02-14T20:21:45.780Z,4.18
2018-02-14T20:24:11.990Z,4.05
2018-02-14T20:26:38.164Z,4.22
2018-02-14T20:29:05.069Z,5.07
2018-02-14T20:31:31.238Z,4.55
2018-02-14T20:33:57.404Z,9.05
2018-02-14T20:36:23.569Z,12.82
2018-02-14T20:38:49.739Z,36.60
2018-02-14T20:41:16.648Z,31.87
2018-02-14T20:43:42.804Z,20.10
2018-02-14T20:46:08.985Z,12.32
2018-02-14T20:48:35.174Z,19.00
2018-02-14T20:51:02.263Z,18.10
2018-02-14T20:53:28.429Z,12.20
2018-02-14T20:55:54.597Z,12.20
2018-02-14T20:58:20.756Z,10.18
2018-02-14T21:00:46.949Z,15.20
2018-02-14T21:03:13.859Z,5.90
2018-02-14T21:05:40.036Z,12.65
2018-02-14T21:08:06.221Z,13.05
2018-02-14T21:10:33.129Z,8.82
2018-02-14T21:12:59.292Z,9.27
2018-02-14T21:15:25.506Z,10.73
2018-02-14T21:17:51.679Z,6.40
2018-02-14T21:20:17.850Z,7.97
2018-02-14T21:22:44.033Z,12.57
2018-02-14T21:25:10.217Z,6.68
2018-02-14T21:27:36.384Z,5.45
2018-02-14T21:30:02.593Z,9.82
2018-02-14T21:32:29.505Z,8.30
2018-02-14T21:34:55.675Z,5.15
2018-02-14T21:37:21.835Z,10.55
2018-02-14T21:39:47.991Z,11.48
2018-02-14T21:42:14.161Z,11.93
2018-02-14T21:44:40.377Z,12.88
2018-02-14T21:47:06.586Z,5.90
2018-02-14T21:49:33.513Z,5.65
2018-02-14T21:51:59.732Z,9.02
2018-02-14T21:54:25.917Z,4.82
2018-02-14T21:56:52.081Z,8.63
2018-02-14T21:59:18.269Z,7.40
2018-02-14T22:01:44.416Z,8.63
2018-02-14T22:04:10.580Z,7.57
2018-02-14T22:06:36.749Z,8.77
2018-02-14T22:09:03.013Z,7.90
2018-02-14T22:11:29.185Z,12.63
